sensor_id;sensor_type;location;lat;lon;timestamp;pressure;altitude;pressure_sealevel;temperature;humidity
15489;BME280;7846;48.830;9.116;2022-11-03T00:01:12;98272.53;;;13.28;65.37
15489;BME280;7846;48.830;9.116;2022-11-03T00:03:37;98276.47;;;13.24;65.17
15489;BME280;7846;48.830;9.116;2022-11-03T00:06:03;98276.31;;;13.26;65.54
15489;BME280;7846;48.830;9.116;2022-11-03T00:08:32;98271.19;;;13.24;65.41
15489;BME280;7846;48.830;9.116;2022-11-03T00:11:05;98274.50;;;13.35;65.28
15489;BME280;7846;48.830;9.116;2022-11-03T00:13:31;98261.13;;;13.28;65.49
15489;BME280;7846;48.830;9.116;2022-11-03T00:15:56;98251.38;;;13.28;64.54
15489;BME280;7846;48.830;9.116;2022-11-03T00:18:22;98262.78;;;13.37;64.42
15489;BME280;7846;48.830;9.116;2022-11-03T00:21:07;98249.88;;;13.26;64.82
15489;BME280;7846;48.830;9.116;2022-11-03T00:27:12;98258.59;;;13.18;65.42
15489;BME280;7846;48.830;9.116;2022-11-03T00:29:38;98257.25;;;13.14;65.86
15489;BME280;7846;48.830;9.116;2022-11-03T00:32:04;98247.34;;;13.16;65.86
15489;BME280;7846;48.830;9.116;2022-11-03T00:34:31;98257.31;;;13.30;65.64
15489;BME280;7846;48.830;9.116;2022-11-03T00:36:57;98244.75;;;13.24;65.51
15489;BME280;7846;48.830;9.116;2022-11-03T00:39:22;98246.03;;;13.20;65.30
15489;BME280;7846;48.830;9.116;2022-11-03T00:41:48;98236.94;;;13.15;65.32
15489;BME280;7846;48.830;9.116;2022-11-03T00:44:15;98231.34;;;13.18;65.15
15489;BME280;7846;48.830;9.116;2022-11-03T00:46:41;98230.66;;;13.07;65.69
15489;BME280;7846;48.830;9.116;2022-11-03T00:49:06;98234.28;;;13.06;65.13
15489;BME280;7846;48.830;9.116;2022-11-03T00:51:34;98227.00;;;13.08;65.06
15489;BME280;7846;48.830;9.116;2022-11-03T00:54:01;98221.25;;;13.13;65.37
15489;BME280;7846;48.830;9.116;2022-11-03T00:56:28;98225.53;;;13.22;65.12
15489;BME280;7846;48.830;9.116;2022-11-03T00:58:56;98216.63;;;13.15;65.30
15489;BME280;7846;48.830;9.116;2022-11-03T01:01:30;98215.81;;;13.31;65.16
15489;BME280;7846;48.830;9.116;2022-11-03T01:03:57;98217.13;;;13.19;65.17
15489;BME280;7846;48.830;9.116;2022-11-03T01:06:44;98219.28;;;13.23;65.70
15489;BME280;7846;48.830;9.116;2022-11-03T01:09:26;98208.53;;;13.17;65.82
15489;BME280;7846;48.830;9.116;2022-11-03T01:12:01;98210.50;;;13.15;66.03
15489;BME280;7846;48.830;9.116;2022-11-03T01:17:00;98208.19;;;13.20;65.12
15489;BME280;7846;48.830;9.116;2022-11-03T01:19:26;98206.84;;;12.99;65.40
15489;BME280;7846;48.830;9.116;2022-11-03T01:21:52;98204.34;;;12.81;66.12
15489;BME280;7846;48.830;9.116;2022-11-03T01:24:18;98199.53;;;12.69;66.50
15489;BME280;7846;48.830;9.116;2022-11-03T01:26:43;98199.03;;;12.65;66.72
15489;BME280;7846;48.830;9.116;2022-11-03T01:29:09;98193.38;;;12.52;67.77
15489;BME280;7846;48.830;9.116;2022-11-03T01:31:34;98185.63;;;12.58;67.11
15489;BME280;7846;48.830;9.116;2022-11-03T01:34:00;98182.16;;;12.50;66.79
15489;BME280;7846;48.830;9.116;2022-11-03T01:36:25;98174.56;;;12.55;66.05
15489;BME280;7846;48.830;9.116;2022-11-03T01:38:53;98172.47;;;12.75;66.28
15489;BME280;7846;48.830;9.116;2022-11-03T01:41:22;98169.34;;;12.88;65.46
15489;BME280;7846;48.830;9.116;2022-11-03T01:46:42;98172.00;;;12.96;65.44
15489;BME280;7846;48.830;9.116;2022-11-03T01:49:16;98157.97;;;12.95;65.18
15489;BME280;7846;48.830;9.116;2022-11-03T01:51:44;98146.91;;;12.83;65.42
15489;BME280;7846;48.830;9.116;2022-11-03T01:54:16;98145.22;;;12.74;65.91
15489;BME280;7846;48.830;9.116;2022-11-03T01:56:44;98157.59;;;12.74;65.09
15489;BME280;7846;48.830;9.116;2022-11-03T01:59:16;98154.47;;;12.70;65.70
15489;BME280;7846;48.830;9.116;2022-11-03T02:01:44;98138.59;;;12.62;65.47
15489;BME280;7846;48.830;9.116;2022-11-03T02:04:12;98144.88;;;12.61;65.60
15489;BME280;7846;48.830;9.116;2022-11-03T02:06:41;98138.63;;;12.70;65.51
15489;BME280;7846;48.830;9.116;2022-11-03T02:09:07;98152.31;;;12.66;65.20
15489;BME280;7846;48.830;9.116;2022-11-03T02:11:35;98144.38;;;12.57;64.72
15489;BME280;7846;48.830;9.116;2022-11-03T02:14:21;98152.09;;;12.43;64.97
15489;BME280;7846;48.830;9.116;2022-11-03T02:16:55;98148.69;;;12.67;66.25
15489;BME280;7846;48.830;9.116;2022-11-03T02:19:32;98146.34;;;12.64;65.06
15489;BME280;7846;48.830;9.116;2022-11-03T02:28:01;98131.34;;;12.05;66.86
15489;BME280;7846;48.830;9.116;2022-11-03T02:30:32;98122.97;;;12.18;66.99
15489;BME280;7846;48.830;9.116;2022-11-03T02:33:14;98125.50;;;12.28;66.98
15489;BME280;7846;48.830;9.116;2022-11-03T02:35:52;98119.03;;;12.22;66.19
15489;BME280;7846;48.830;9.116;2022-11-03T02:38:23;98114.56;;;12.15;66.63
15489;BME280;7846;48.830;9.116;2022-11-03T02:40:53;98111.59;;;12.09;66.24
15489;BME280;7846;48.830;9.116;2022-11-03T02:43:21;98113.41;;;12.09;67.02
15489;BME280;7846;48.830;9.116;2022-11-03T02:45:49;98113.50;;;11.99;66.72
15489;BME280;7846;48.830;9.116;2022-11-03T02:48:17;98096.31;;;11.87;66.68
15489;BME280;7846;48.830;9.116;2022-11-03T02:50:43;98098.03;;;11.78;66.31
15489;BME280;7846;48.830;9.116;2022-11-03T02:53:11;98097.16;;;11.88;66.04
15489;BME280;7846;48.830;9.116;2022-11-03T02:55:39;98090.56;;;11.92;65.88
15489;BME280;7846;48.830;9.116;2022-11-03T03:03:26;98077.22;;;11.67;66.46
15489;BME280;7846;48.830;9.116;2022-11-03T03:05:56;98073.25;;;11.63;67.09
15489;BME280;7846;48.830;9.116;2022-11-03T03:08:25;98064.50;;;11.54;67.04
15489;BME280;7846;48.830;9.116;2022-11-03T03:10:52;98059.34;;;11.53;67.36
15489;BME280;7846;48.830;9.116;2022-11-03T03:13:21;98054.25;;;11.51;67.15
15489;BME280;7846;48.830;9.116;2022-11-03T03:18:28;98053.16;;;11.62;66.64
15489;BME280;7846;48.830;9.116;2022-11-03T03:21:04;98050.56;;;11.78;66.20
15489;BME280;7846;48.830;9.116;2022-11-03T03:23:40;98050.88;;;11.67;67.21
15489;BME280;7846;48.830;9.116;2022-11-03T03:26:40;98042.94;;;11.67;67.46
15489;BME280;7846;48.830;9.116;2022-11-03T03:29:17;98032.44;;;11.75;67.15
15489;BME280;7846;48.830;9.116;2022-11-03T03:31:50;98034.72;;;11.70;67.28
15489;BME280;7846;48.830;9.116;2022-11-03T03:34:19;98033.78;;;11.79;66.54
15489;BME280;7846;48.830;9.116;2022-11-03T03:36:46;98034.94;;;11.77;66.75
15489;BME280;7846;48.830;9.116;2022-11-03T03:39:14;98028.47;;;11.71;66.69
15489;BME280;7846;48.830;9.116;2022-11-03T03:41:44;98026.69;;;11.72;66.66
15489;BME280;7846;48.830;9.116;2022-11-03T03:44:11;98028.81;;;11.68;66.79
15489;BME280;7846;48.830;9.116;2022-11-03T03:46:46;98012.53;;;11.81;66.81
15489;BME280;7846;48.830;9.116;2022-11-03T03:49:13;98013.63;;;11.70;66.71
15489;BME280;7846;48.830;9.116;2022-11-03T03:51:39;98009.19;;;11.79;66.67
15489;BME280;7846;48.830;9.116;2022-11-03T03:54:05;98003.94;;;11.79;66.44
15489;BME280;7846;48.830;9.116;2022-11-03T03:56:39;98001.88;;;11.91;66.36
15489;BME280;7846;48.830;9.116;2022-11-03T03:59:05;98002.19;;;11.88;66.56
15489;BME280;7846;48.830;9.116;2022-11-03T04:01:33;98000.66;;;11.77;66.91
15489;BME280;7846;48.830;9.116;2022-11-03T04:03:59;97989.56;;;11.65;67.20
15489;BME280;7846;48.830;9.116;2022-11-03T04:06:24;97987.59;;;11.67;67.31
15489;BME280;7846;48.830;9.116;2022-11-03T04:08:50;97984.88;;;11.85;66.90
15489;BME280;7846;48.830;9.116;2022-11-03T04:11:15;97976.94;;;11.85;67.10
15489;BME280;7846;48.830;9.116;2022-11-03T04:14:00;97962.47;;;11.89;66.99
15489;BME280;7846;48.830;9.116;2022-11-03T04:16:44;97974.91;;;11.79;67.12
15489;BME280;7846;48.830;9.116;2022-11-03T04:19:28;97967.72;;;11.89;66.55
15489;BME280;7846;48.830;9.116;2022-11-03T04:22:12;97966.03;;;11.72;67.24
15489;BME280;7846;48.830;9.116;2022-11-03T04:24:40;97965.22;;;11.79;66.83
15489;BME280;7846;48.830;9.116;2022-11-03T04:30:32;97957.84;;;11.91;66.72
15489;BME280;7846;48.830;9.116;2022-11-03T04:32:58;97957.84;;;11.91;66.79
15489;BME280;7846;48.830;9.116;2022-11-03T04:35:33;97942.69;;;11.93;67.17
15489;BME280;7846;48.830;9.116;2022-11-03T04:38:21;97949.75;;;11.84;67.18
15489;BME280;7846;48.830;9.116;2022-11-03T04:40:54;97947.00;;;11.94;66.74
15489;BME280;7846;48.830;9.116;2022-11-03T04:43:29;97948.44;;;12.05;66.33
15489;BME280;7846;48.830;9.116;2022-11-03T04:45:55;97945.16;;;11.86;66.66
15489;BME280;7846;48.830;9.116;2022-11-03T04:48:21;97936.09;;;11.97;66.64
15489;BME280;7846;48.830;9.116;2022-11-03T04:50:48;97941.22;;;12.15;66.32
15489;BME280;7846;48.830;9.116;2022-11-03T04:53:16;97937.59;;;12.08;66.66
15489;BME280;7846;48.830;9.116;2022-11-03T04:55:45;97938.44;;;12.25;66.56
15489;BME280;7846;48.830;9.116;2022-11-03T04:58:25;97939.25;;;12.17;66.53
15489;BME280;7846;48.830;9.116;2022-11-03T05:00:56;97934.31;;;12.06;65.93
15489;BME280;7846;48.830;9.116;2022-11-03T05:03:30;97943.53;;;12.18;65.71
15489;BME280;7846;48.830;9.116;2022-11-03T05:05:56;97943.34;;;12.20;65.65
15489;BME280;7846;48.830;9.116;2022-11-03T05:08:23;97935.44;;;11.95;66.18
15489;BME280;7846;48.830;9.116;2022-11-03T05:10:49;97933.22;;;11.74;67.10
15489;BME280;7846;48.830;9.116;2022-11-03T05:13:24;97927.53;;;11.95;66.43
15489;BME280;7846;48.830;9.116;2022-11-03T05:15:53;97920.44;;;11.88;66.11
15489;BME280;7846;48.830;9.116;2022-11-03T05:18:25;97906.03;;;11.82;66.16
15489;BME280;7846;48.830;9.116;2022-11-03T05:20:57;97911.78;;;11.69;66.45
15489;BME280;7846;48.830;9.116;2022-11-03T05:23:24;97907.34;;;11.78;65.99
15489;BME280;7846;48.830;9.116;2022-11-03T05:25:57;97903.78;;;11.87;65.84
15489;BME280;7846;48.830;9.116;2022-11-03T05:28:40;97909.97;;;11.61;66.29
15489;BME280;7846;48.830;9.116;2022-11-03T05:31:23;97892.34;;;11.70;65.80
15489;BME280;7846;48.830;9.116;2022-11-03T05:33:52;97895.28;;;11.67;66.10
15489;BME280;7846;48.830;9.116;2022-11-03T05:36:22;97875.84;;;11.60;65.33
15489;BME280;7846;48.830;9.116;2022-11-03T05:38:54;97880.97;;;11.53;65.70
15489;BME280;7846;48.830;9.116;2022-11-03T05:41:25;97880.78;;;11.47;65.62
15489;BME280;7846;48.830;9.116;2022-11-03T05:44:20;97878.44;;;11.35;66.20
15489;BME280;7846;48.830;9.116;2022-11-03T05:46:49;97869.66;;;11.19;65.96
15489;BME280;7846;48.830;9.116;2022-11-03T05:49:15;97863.38;;;11.20;66.03
15489;BME280;7846;48.830;9.116;2022-11-03T05:51:41;97861.63;;;11.28;65.95
15489;BME280;7846;48.830;9.116;2022-11-03T05:54:19;97871.84;;;11.31;65.62
15489;BME280;7846;48.830;9.116;2022-11-03T05:56:46;97874.44;;;11.23;65.39
15489;BME280;7846;48.830;9.116;2022-11-03T05:59:13;97858.91;;;11.12;66.88
15489;BME280;7846;48.830;9.116;2022-11-03T06:01:42;97863.53;;;11.10;66.78
15489;BME280;7846;48.830;9.116;2022-11-03T06:04:28;97863.63;;;11.43;65.85
15489;BME280;7846;48.830;9.116;2022-11-03T06:07:29;97862.47;;;11.45;65.29
15489;BME280;7846;48.830;9.116;2022-11-03T06:09:56;97866.09;;;11.36;65.79
15489;BME280;7846;48.830;9.116;2022-11-03T06:12:24;97859.50;;;11.40;65.52
15489;BME280;7846;48.830;9.116;2022-11-03T06:14:50;97852.03;;;11.19;65.69
15489;BME280;7846;48.830;9.116;2022-11-03T06:17:25;97847.56;;;11.20;66.08
15489;BME280;7846;48.830;9.116;2022-11-03T06:19:53;97835.25;;;11.20;66.12
15489;BME280;7846;48.830;9.116;2022-11-03T06:22:30;97826.69;;;11.18;65.82
15489;BME280;7846;48.830;9.116;2022-11-03T06:25:29;97820.78;;;11.24;65.46
15489;BME280;7846;48.830;9.116;2022-11-03T06:28:03;97813.50;;;11.18;65.92
15489;BME280;7846;48.830;9.116;2022-11-03T06:30:35;97812.19;;;11.22;65.75
15489;BME280;7846;48.830;9.116;2022-11-03T06:33:18;97819.66;;;11.35;65.63
15489;BME280;7846;48.830;9.116;2022-11-03T06:35:53;97813.50;;;11.26;66.45
15489;BME280;7846;48.830;9.116;2022-11-03T06:38:24;97826.19;;;11.31;66.39
15489;BME280;7846;48.830;9.116;2022-11-03T06:40:54;97829.00;;;11.37;66.93
15489;BME280;7846;48.830;9.116;2022-11-03T06:43:45;97836.47;;;11.67;66.37
15489;BME280;7846;48.830;9.116;2022-11-03T06:46:18;97831.06;;;11.93;66.35
15489;BME280;7846;48.830;9.116;2022-11-03T06:48:45;97820.53;;;11.93;66.21
15489;BME280;7846;48.830;9.116;2022-11-03T06:51:25;97832.69;;;12.26;66.11
15489;BME280;7846;48.830;9.116;2022-11-03T06:53:52;97835.47;;;12.33;65.85
15489;BME280;7846;48.830;9.116;2022-11-03T06:56:21;97837.94;;;12.43;65.48
15489;BME280;7846;48.830;9.116;2022-11-03T06:58:47;97829.84;;;12.44;66.44
15489;BME280;7846;48.830;9.116;2022-11-03T07:01:22;97827.44;;;12.74;65.99
15489;BME280;7846;48.830;9.116;2022-11-03T07:03:51;97825.09;;;12.79;66.09
15489;BME280;7846;48.830;9.116;2022-11-03T07:06:36;97823.03;;;13.05;65.21
15489;BME280;7846;48.830;9.116;2022-11-03T07:09:06;97803.53;;;13.06;65.72
15489;BME280;7846;48.830;9.116;2022-11-03T07:12:02;97817.06;;;13.43;65.45
15489;BME280;7846;48.830;9.116;2022-11-03T07:14:34;97799.38;;;13.43;65.71
15489;BME280;7846;48.830;9.116;2022-11-03T07:17:04;97802.97;;;13.73;65.18
15489;BME280;7846;48.830;9.116;2022-11-03T07:19:42;97792.44;;;13.65;65.72
15489;BME280;7846;48.830;9.116;2022-11-03T07:22:26;97788.84;;;13.81;65.16
15489;BME280;7846;48.830;9.116;2022-11-03T07:24:54;97793.00;;;13.75;65.04
15489;BME280;7846;48.830;9.116;2022-11-03T07:27:35;97786.50;;;14.01;65.00
15489;BME280;7846;48.830;9.116;2022-11-03T07:30:28;97789.72;;;14.11;64.61
15489;BME280;7846;48.830;9.116;2022-11-03T07:33:00;97784.06;;;14.14;64.93
15489;BME280;7846;48.830;9.116;2022-11-03T07:35:40;97784.44;;;14.11;64.99
15489;BME280;7846;48.830;9.116;2022-11-03T07:38:12;97783.63;;;14.40;64.54
15489;BME280;7846;48.830;9.116;2022-11-03T07:40:38;97774.44;;;14.51;64.19
15489;BME280;7846;48.830;9.116;2022-11-03T07:45:51;97781.69;;;14.49;63.20
15489;BME280;7846;48.830;9.116;2022-11-03T07:51:00;97776.97;;;14.44;62.23
15489;BME280;7846;48.830;9.116;2022-11-03T07:53:42;97766.47;;;14.66;63.00
15489;BME280;7846;48.830;9.116;2022-11-03T07:56:18;97766.53;;;15.02;63.43
15489;BME280;7846;48.830;9.116;2022-11-03T07:58:51;97771.22;;;15.43;63.26
15489;BME280;7846;48.830;9.116;2022-11-03T08:01:37;97760.59;;;15.64;62.74
15489;BME280;7846;48.830;9.116;2022-11-03T08:04:06;97755.66;;;15.83;62.59
15489;BME280;7846;48.830;9.116;2022-11-03T08:06:32;97754.72;;;15.90;61.98
15489;BME280;7846;48.830;9.116;2022-11-03T08:08:59;97736.84;;;15.78;62.23
15489;BME280;7846;48.830;9.116;2022-11-03T08:11:24;97734.06;;;15.86;62.46
15489;BME280;7846;48.830;9.116;2022-11-03T08:13:52;97722.75;;;16.05;62.11
15489;BME280;7846;48.830;9.116;2022-11-03T08:16:19;97728.44;;;16.30;61.84
15489;BME280;7846;48.830;9.116;2022-11-03T08:18:45;97720.31;;;16.04;61.77
15489;BME280;7846;48.830;9.116;2022-11-03T08:21:14;97698.84;;;15.99;61.70
15489;BME280;7846;48.830;9.116;2022-11-03T08:23:46;97701.91;;;16.37;61.96
15489;BME280;7846;48.830;9.116;2022-11-03T08:26:16;97701.41;;;16.68;61.26
15489;BME280;7846;48.830;9.116;2022-11-03T08:28:42;97701.13;;;16.50;61.06
15489;BME280;7846;48.830;9.116;2022-11-03T08:31:07;97687.69;;;16.58;60.90
15489;BME280;7846;48.830;9.116;2022-11-03T08:33:34;97692.03;;;16.65;60.08
15489;BME280;7846;48.830;9.116;2022-11-03T08:36:02;97687.56;;;16.79;60.17
15489;BME280;7846;48.830;9.116;2022-11-03T08:38:29;97693.38;;;16.96;59.82
15489;BME280;7846;48.830;9.116;2022-11-03T08:40:58;97683.16;;;17.20;58.48
15489;BME280;7846;48.830;9.116;2022-11-03T08:43:23;97691.78;;;17.22;59.28
15489;BME280;7846;48.830;9.116;2022-11-03T08:46:24;97676.44;;;17.50;58.01
15489;BME280;7846;48.830;9.116;2022-11-03T08:48:50;97676.47;;;17.77;57.64
15489;BME280;7846;48.830;9.116;2022-11-03T08:51:17;97677.41;;;18.16;57.93
15489;BME280;7846;48.830;9.116;2022-11-03T08:53:44;97661.63;;;18.14;57.48
15489;BME280;7846;48.830;9.116;2022-11-03T08:56:11;97671.94;;;18.55;56.84
15489;BME280;7846;48.830;9.116;2022-11-03T08:58:36;97665.69;;;18.81;55.65
15489;BME280;7846;48.830;9.116;2022-11-03T09:01:02;97664.78;;;18.94;55.67
15489;BME280;7846;48.830;9.116;2022-11-03T09:03:29;97667.03;;;18.52;55.57
15489;BME280;7846;48.830;9.116;2022-11-03T09:05:54;97667.66;;;18.54;54.46
15489;BME280;7846;48.830;9.116;2022-11-03T09:08:20;97665.44;;;18.90;54.62
15489;BME280;7846;48.830;9.116;2022-11-03T09:13:54;97657.91;;;19.43;53.35
15489;BME280;7846;48.830;9.116;2022-11-03T09:16:21;97651.56;;;19.38;52.91
15489;BME280;7846;48.830;9.116;2022-11-03T09:18:47;97645.34;;;19.19;52.35
15489;BME280;7846;48.830;9.116;2022-11-03T09:21:15;97645.47;;;19.55;52.95
15489;BME280;7846;48.830;9.116;2022-11-03T09:23:40;97650.22;;;19.78;51.44
15489;BME280;7846;48.830;9.116;2022-11-03T09:26:05;97648.84;;;19.44;51.76
15489;BME280;7846;48.830;9.116;2022-11-03T09:28:31;97643.44;;;19.76;51.49
15489;BME280;7846;48.830;9.116;2022-11-03T09:30:56;97632.66;;;20.08;51.14
15489;BME280;7846;48.830;9.116;2022-11-03T09:33:22;97636.13;;;20.26;51.20
15489;BME280;7846;48.830;9.116;2022-11-03T09:35:47;97624.38;;;20.46;50.71
15489;BME280;7846;48.830;9.116;2022-11-03T09:38:12;97633.22;;;20.46;50.54
15489;BME280;7846;48.830;9.116;2022-11-03T09:40:38;97633.09;;;20.23;49.43
15489;BME280;7846;48.830;9.116;2022-11-03T09:43:04;97642.72;;;20.61;49.11
15489;BME280;7846;48.830;9.116;2022-11-03T09:45:32;97634.88;;;21.08;49.02
15489;BME280;7846;48.830;9.116;2022-11-03T09:47:59;97619.13;;;21.41;47.54
15489;BME280;7846;48.830;9.116;2022-11-03T09:50:26;97609.94;;;21.49;47.27
15489;BME280;7846;48.830;9.116;2022-11-03T09:52:51;97615.19;;;21.44;47.26
15489;BME280;7846;48.830;9.116;2022-11-03T09:55:24;97607.97;;;21.56;46.40
15489;BME280;7846;48.830;9.116;2022-11-03T09:57:54;97600.03;;;21.49;47.19
15489;BME280;7846;48.830;9.116;2022-11-03T10:00:22;97592.50;;;20.93;47.39
15489;BME280;7846;48.830;9.116;2022-11-03T10:02:49;97586.97;;;21.30;46.75
15489;BME280;7846;48.830;9.116;2022-11-03T10:05:25;97590.66;;;21.17;47.03
15489;BME280;7846;48.830;9.116;2022-11-03T10:07:59;97584.31;;;21.53;47.88
15489;BME280;7846;48.830;9.116;2022-11-03T10:10:29;97589.44;;;21.43;46.57
15489;BME280;7846;48.830;9.116;2022-11-03T10:13:00;97573.66;;;20.99;47.37
15489;BME280;7846;48.830;9.116;2022-11-03T10:15:26;97581.19;;;21.44;46.85
15489;BME280;7846;48.830;9.116;2022-11-03T10:17:54;97572.19;;;21.50;46.69
15489;BME280;7846;48.830;9.116;2022-11-03T10:20:22;97576.16;;;21.60;46.61
15489;BME280;7846;48.830;9.116;2022-11-03T10:22:53;97585.34;;;21.99;46.54
15489;BME280;7846;48.830;9.116;2022-11-03T10:25:35;97581.09;;;22.27;46.71
15489;BME280;7846;48.830;9.116;2022-11-03T10:28:23;97538.13;;;22.38;45.64
15489;BME280;7846;48.830;9.116;2022-11-03T10:30:55;97561.63;;;22.77;45.31
15489;BME280;7846;48.830;9.116;2022-11-03T10:33:34;97552.44;;;22.73;45.51
15489;BME280;7846;48.830;9.116;2022-11-03T10:36:14;97558.44;;;22.80;45.37
15489;BME280;7846;48.830;9.116;2022-11-03T10:38:46;97549.41;;;22.98;44.90
15489;BME280;7846;48.830;9.116;2022-11-03T10:41:20;97542.72;;;23.17;44.11
15489;BME280;7846;48.830;9.116;2022-11-03T10:46:30;97537.50;;;23.44;43.94
15489;BME280;7846;48.830;9.116;2022-11-03T10:49:16;97542.50;;;23.74;43.32
15489;BME280;7846;48.830;9.116;2022-11-03T10:51:44;97528.59;;;23.60;43.96
15489;BME280;7846;48.830;9.116;2022-11-03T10:54:15;97520.03;;;23.63;43.67
15489;BME280;7846;48.830;9.116;2022-11-03T10:56:41;97521.72;;;23.31;43.99
15489;BME280;7846;48.830;9.116;2022-11-03T10:59:15;97519.78;;;22.92;44.02
15489;BME280;7846;48.830;9.116;2022-11-03T11:01:42;97517.19;;;22.98;44.22
15489;BME280;7846;48.830;9.116;2022-11-03T11:04:17;97507.91;;;23.22;44.11
15489;BME280;7846;48.830;9.116;2022-11-03T11:06:44;97509.72;;;23.00;43.74
15489;BME280;7846;48.830;9.116;2022-11-03T11:09:13;97487.63;;;22.64;44.40
15489;BME280;7846;48.830;9.116;2022-11-03T11:12:04;97487.38;;;23.16;43.82
15489;BME280;7846;48.830;9.116;2022-11-03T11:14:35;97479.28;;;23.11;44.45
15489;BME280;7846;48.830;9.116;2022-11-03T11:17:04;97475.78;;;23.10;44.71
15489;BME280;7846;48.830;9.116;2022-11-03T11:22:33;97469.16;;;23.18;44.33
15489;BME280;7846;48.830;9.116;2022-11-03T11:24:59;97468.94;;;23.41;43.96
15489;BME280;7846;48.830;9.116;2022-11-03T11:30:00;97450.38;;;23.01;44.66
15489;BME280;7846;48.830;9.116;2022-11-03T11:35:08;97448.41;;;23.13;45.47
15489;BME280;7846;48.830;9.116;2022-11-03T11:37:36;97443.41;;;23.00;44.83
15489;BME280;7846;48.830;9.116;2022-11-03T11:40:10;97441.44;;;22.45;45.40
15489;BME280;7846;48.830;9.116;2022-11-03T11:50:41;97408.56;;;22.38;45.01
15489;BME280;7846;48.830;9.116;2022-11-03T11:53:08;97407.13;;;22.64;45.20
15489;BME280;7846;48.830;9.116;2022-11-03T11:55:46;97400.75;;;22.87;45.08
15489;BME280;7846;48.830;9.116;2022-11-03T11:58:18;97399.22;;;22.57;45.64
15489;BME280;7846;48.830;9.116;2022-11-03T12:00:56;97391.44;;;22.39;45.78
15489;BME280;7846;48.830;9.116;2022-11-03T12:03:33;97384.59;;;22.65;45.88
15489;BME280;7846;48.830;9.116;2022-11-03T12:06:04;97381.34;;;22.46;45.73
15489;BME280;7846;48.830;9.116;2022-11-03T12:08:31;97384.78;;;22.41;45.59
15489;BME280;7846;48.830;9.116;2022-11-03T12:11:02;97380.13;;;22.54;46.47
15489;BME280;7846;48.830;9.116;2022-11-03T12:13:50;97376.72;;;22.41;46.25
15489;BME280;7846;48.830;9.116;2022-11-03T12:16:29;97368.97;;;22.62;45.80
15489;BME280;7846;48.830;9.116;2022-11-03T12:18:56;97366.09;;;22.30;46.04
15489;BME280;7846;48.830;9.116;2022-11-03T12:21:46;97366.84;;;22.13;45.61
15489;BME280;7846;48.830;9.116;2022-11-03T12:24:34;97357.78;;;21.86;46.35
15489;BME280;7846;48.830;9.116;2022-11-03T12:27:01;97347.41;;;21.32;46.73
15489;BME280;7846;48.830;9.116;2022-11-03T12:29:27;97347.38;;;20.92;47.44
15489;BME280;7846;48.830;9.116;2022-11-03T12:31:54;97349.84;;;21.22;46.84
15489;BME280;7846;48.830;9.116;2022-11-03T12:34:20;97341.56;;;21.35;47.24
15489;BME280;7846;48.830;9.116;2022-11-03T12:36:45;97319.97;;;21.54;47.21
15489;BME280;7846;48.830;9.116;2022-11-03T12:39:12;97312.38;;;21.62;46.92
15489;BME280;7846;48.830;9.116;2022-11-03T12:41:41;97306.47;;;21.48;46.81
15489;BME280;7846;48.830;9.116;2022-11-03T12:44:06;97310.38;;;21.41;47.21
15489;BME280;7846;48.830;9.116;2022-11-03T12:46:31;97306.41;;;21.32;48.37
15489;BME280;7846;48.830;9.116;2022-11-03T12:48:57;97304.22;;;21.29;48.04
15489;BME280;7846;48.830;9.116;2022-11-03T12:51:24;97293.91;;;21.49;47.46
15489;BME280;7846;48.830;9.116;2022-11-03T12:53:53;97299.47;;;21.76;47.14
15489;BME280;7846;48.830;9.116;2022-11-03T12:56:19;97296.97;;;21.69;47.30
15489;BME280;7846;48.830;9.116;2022-11-03T12:58:44;97300.13;;;21.83;47.24
15489;BME280;7846;48.830;9.116;2022-11-03T13:01:09;97280.22;;;21.62;48.03
15489;BME280;7846;48.830;9.116;2022-11-03T13:03:35;97282.34;;;21.77;47.93
15489;BME280;7846;48.830;9.116;2022-11-03T13:06:04;97281.28;;;21.78;48.09
15489;BME280;7846;48.830;9.116;2022-11-03T13:08:33;97270.53;;;21.61;48.48
15489;BME280;7846;48.830;9.116;2022-11-03T13:10:59;97271.38;;;21.62;48.76
15489;BME280;7846;48.830;9.116;2022-11-03T13:13:27;97259.69;;;21.68;48.12
15489;BME280;7846;48.830;9.116;2022-11-03T13:15:53;97257.53;;;20.96;49.43
15489;BME280;7846;48.830;9.116;2022-11-03T13:18:19;97245.13;;;21.18;49.04
15489;BME280;7846;48.830;9.116;2022-11-03T13:20:45;97245.47;;;20.82;49.64
15489;BME280;7846;48.830;9.116;2022-11-03T13:23:12;97220.53;;;20.52;50.30
15489;BME280;7846;48.830;9.116;2022-11-03T13:25:37;97226.78;;;20.70;49.91
15489;BME280;7846;48.830;9.116;2022-11-03T13:28:03;97221.63;;;21.09;48.92
15489;BME280;7846;48.830;9.116;2022-11-03T13:30:29;97210.31;;;21.18;48.75
15489;BME280;7846;48.830;9.116;2022-11-03T13:32:55;97210.38;;;21.07;48.36
15489;BME280;7846;48.830;9.116;2022-11-03T13:35:22;97197.00;;;21.07;48.69
15489;BME280;7846;48.830;9.116;2022-11-03T13:37:47;97193.25;;;21.08;48.48
15489;BME280;7846;48.830;9.116;2022-11-03T13:40:13;97187.44;;;21.11;48.24
15489;BME280;7846;48.830;9.116;2022-11-03T13:42:39;97182.22;;;21.04;48.39
15489;BME280;7846;48.830;9.116;2022-11-03T13:45:06;97180.06;;;21.18;48.15
15489;BME280;7846;48.830;9.116;2022-11-03T13:47:33;97177.53;;;21.11;48.55
15489;BME280;7846;48.830;9.116;2022-11-03T13:49:59;97173.72;;;21.07;48.56
15489;BME280;7846;48.830;9.116;2022-11-03T13:52:25;97166.91;;;20.99;48.72
15489;BME280;7846;48.830;9.116;2022-11-03T13:54:51;97157.41;;;20.80;49.13
15489;BME280;7846;48.830;9.116;2022-11-03T13:57:16;97150.38;;;20.74;49.25
15489;BME280;7846;48.830;9.116;2022-11-03T13:59:42;97144.56;;;20.65;49.90
15489;BME280;7846;48.830;9.116;2022-11-03T14:02:08;97136.13;;;20.57;50.03
15489;BME280;7846;48.830;9.116;2022-11-03T14:04:33;97136.06;;;20.68;49.73
15489;BME280;7846;48.830;9.116;2022-11-03T14:06:59;97140.59;;;20.68;49.63
15489;BME280;7846;48.830;9.116;2022-11-03T14:09:25;97129.69;;;20.69;49.84
15489;BME280;7846;48.830;9.116;2022-11-03T14:11:51;97132.38;;;20.58;49.88
15489;BME280;7846;48.830;9.116;2022-11-03T14:14:35;97116.94;;;20.48;50.07
15489;BME280;7846;48.830;9.116;2022-11-03T14:17:00;97108.81;;;20.54;50.37
15489;BME280;7846;48.830;9.116;2022-11-03T14:19:26;97115.31;;;20.59;50.62
15489;BME280;7846;48.830;9.116;2022-11-03T14:21:52;97099.25;;;20.59;49.95